createdAt,value
2018-09-24T00:00:17.948Z,9.00
2018-09-24T00:02:46.133Z,8.80
2018-09-24T00:05:14.455Z,8.80
2018-09-24T00:07:42.781Z,8.90
2018-09-24T00:10:11.609Z,9.00
2018-09-24T00:12:39.901Z,9.00
2018-09-24T00:15:08.225Z,9.00
2018-09-24T00:17:36.521Z,9.00
2018-09-24T00:20:04.850Z,8.90
2018-09-24T00:22:33.276Z,8.90
2018-09-24T00:25:01.590Z,8.90
2018-09-24T00:27:29.882Z,8.90
2018-09-24T00:29:58.206Z,8.90
2018-09-24T00:32:26.502Z,8.70
2018-09-24T00:34:54.812Z,8.70
2018-09-24T00:37:23.096Z,8.60
2018-09-24T00:39:51.424Z,8.70
2018-09-24T00:42:19.703Z,8.60
2018-09-24T00:44:48.092Z,8.50
2018-09-24T00:47:16.396Z,8.40
2018-09-24T00:49:44.718Z,8.30
2018-09-24T00:52:13.028Z,8.20
2018-09-24T00:54:41.337Z,8.10
2018-09-24T00:57:09.631Z,8.10
2018-09-24T00:59:37.949Z,7.90
2018-09-24T01:02:06.245Z,7.80
2018-09-24T01:04:34.561Z,7.60
2018-09-24T01:07:03.317Z,7.60
2018-09-24T01:09:31.633Z,7.60
2018-09-24T01:11:59.930Z,7.50
2018-09-24T01:14:28.246Z,7.50
2018-09-24T01:16:56.532Z,7.50
2018-09-24T01:19:24.855Z,7.50
2018-09-24T01:21:53.149Z,7.50
2018-09-24T01:24:21.470Z,7.50
2018-09-24T01:26:49.752Z,7.40
2018-09-24T01:29:18.082Z,7.30
2018-09-24T01:31:46.386Z,7.30
2018-09-24T01:34:14.686Z,7.30
2018-09-24T01:36:42.973Z,7.20
2018-09-24T01:39:11.353Z,7.20
2018-09-24T01:41:39.658Z,7.10
2018-09-24T01:44:08.251Z,7.10
2018-09-24T01:46:36.549Z,7.00
2018-09-24T01:49:04.997Z,7.10
2018-09-24T01:51:36.360Z,7.20
2018-09-24T01:54:05.649Z,7.40
2018-09-24T01:56:34.106Z,7.60
2018-09-24T01:59:02.448Z,7.50
2018-09-24T02:01:31.089Z,7.40
2018-09-24T02:03:59.373Z,7.30
2018-09-24T02:06:27.681Z,7.30
2018-09-24T02:08:55.959Z,7.20
2018-09-24T02:11:24.265Z,6.90
2018-09-24T02:13:53.164Z,6.80
2018-09-24T02:16:21.764Z,6.80
2018-09-24T02:18:50.424Z,6.70
2018-09-24T02:21:18.924Z,6.70
2018-09-24T02:23:47.237Z,6.70
2018-09-24T02:26:15.537Z,6.60
2018-09-24T02:28:43.824Z,6.50
2018-09-24T02:31:12.162Z,6.30
2018-09-24T02:33:40.444Z,6.30
2018-09-24T02:36:08.753Z,6.30
2018-09-24T02:38:39.326Z,6.30
2018-09-24T02:41:07.650Z,6.30
2018-09-24T02:43:35.949Z,6.40
2018-09-24T02:46:04.286Z,6.40
2018-09-24T02:48:32.917Z,6.40
2018-09-24T02:51:01.235Z,6.50
2018-09-24T02:53:38.322Z,6.50
2018-09-24T02:56:06.972Z,6.50
2018-09-24T02:58:35.266Z,6.50
2018-09-24T03:01:03.611Z,6.50
2018-09-24T03:03:31.895Z,6.50
2018-09-24T03:06:00.218Z,6.40
2018-09-24T03:08:28.551Z,6.50
2018-09-24T03:11:05.645Z,6.40
2018-09-24T03:13:33.959Z,6.30
2018-09-24T03:16:02.289Z,6.20
2018-09-24T03:18:30.588Z,6.20
2018-09-24T03:20:58.905Z,6.10
2018-09-24T03:23:27.201Z,6.20
2018-09-24T03:25:55.512Z,6.10
2018-09-24T03:28:23.808Z,5.90
2018-09-24T03:30:52.125Z,5.90
2018-09-24T03:33:20.402Z,5.90
2018-09-24T03:35:48.713Z,5.90
2018-09-24T03:38:17.009Z,5.80
2018-09-24T03:40:45.321Z,5.80
2018-09-24T03:43:13.611Z,5.60
2018-09-24T03:45:41.923Z,5.60
2018-09-24T03:48:10.222Z,5.60
2018-09-24T03:50:38.525Z,5.50
2018-09-24T03:53:06.834Z,5.40
2018-09-24T03:55:35.146Z,5.20
2018-09-24T03:58:03.425Z,5.20
2018-09-24T04:00:31.732Z,5.20
2018-09-24T04:03:00.036Z,5.20
2018-09-24T04:05:33.700Z,5.30
2018-09-24T04:08:07.460Z,5.30
2018-09-24T04:10:41.280Z,5.30
2018-09-24T04:13:14.977Z,5.20
2018-09-24T04:15:48.783Z,5.40
2018-09-24T04:18:22.549Z,5.40
2018-09-24T04:20:56.282Z,5.40
2018-09-24T04:23:30.077Z,5.30
2018-09-24T04:26:03.792Z,5.30
2018-09-24T04:28:37.605Z,5.20
2018-09-24T04:31:11.553Z,5.10
2018-09-24T04:33:45.128Z,4.90
2018-09-24T04:36:18.911Z,4.90
2018-09-24T04:38:52.604Z,5.00
2018-09-24T04:41:26.336Z,4.90
2018-09-24T04:44:00.017Z,4.90
2018-09-24T04:46:33.749Z,4.90
2018-09-24T04:49:07.592Z,4.80
2018-09-24T04:51:41.151Z,4.80
2018-09-24T04:54:14.842Z,4.90
2018-09-24T04:56:48.474Z,4.90
2018-09-24T04:59:22.246Z,5.00
2018-09-24T05:01:56.024Z,4.90
2018-09-24T05:04:29.753Z,4.80
2018-09-24T05:07:03.561Z,4.70
2018-09-24T05:09:37.296Z,4.60
2018-09-24T05:12:10.966Z,4.70
2018-09-24T05:14:44.741Z,4.60
2018-09-24T05:17:18.473Z,4.70
2018-09-24T05:19:52.148Z,4.70
2018-09-24T05:22:25.845Z,4.80
2018-09-24T05:24:59.579Z,4.80
2018-09-24T05:27:33.226Z,4.80
2018-09-24T05:30:06.995Z,4.90
2018-09-24T05:32:40.728Z,5.00
2018-09-24T05:35:14.513Z,5.00
2018-09-24T05:37:48.199Z,5.00
2018-09-24T05:40:21.966Z,4.90
2018-09-24T05:42:55.673Z,4.90
2018-09-24T05:45:29.417Z,5.00
2018-09-24T05:48:03.251Z,4.90
2018-09-24T05:50:37.037Z,5.00
2018-09-24T05:53:10.738Z,5.30
2018-09-24T05:55:44.550Z,5.40
2018-09-24T05:58:18.290Z,5.30
2018-09-24T06:00:52.042Z,5.30
2018-09-24T06:03:25.822Z,5.40
2018-09-24T06:05:59.533Z,5.50
2018-09-24T06:08:33.322Z,5.50
2018-09-24T06:11:07.177Z,5.60
2018-09-24T06:13:41.060Z,5.70
2018-09-24T06:16:15.280Z,5.60
2018-09-24T06:18:49.006Z,5.70
2018-09-24T06:21:22.885Z,5.80
2018-09-24T06:23:56.568Z,5.90
2018-09-24T06:26:30.313Z,5.80
2018-09-24T06:29:04.005Z,7.00
2018-09-24T06:31:37.712Z,7.40
2018-09-24T06:34:11.409Z,7.10
2018-09-24T06:36:45.141Z,6.50
2018-09-24T06:39:18.914Z,6.40
2018-09-24T06:41:52.645Z,6.10
2018-09-24T06:44:26.441Z,6.40
2018-09-24T06:47:00.249Z,6.60
2018-09-24T06:49:33.953Z,6.80
2018-09-24T06:52:07.753Z,7.00
2018-09-24T06:54:41.445Z,7.20
2018-09-24T06:57:15.178Z,7.20
2018-09-24T06:59:48.953Z,7.20
2018-09-24T07:02:22.713Z,7.60
2018-09-24T07:04:56.456Z,8.00
2018-09-24T07:07:30.177Z,8.40
2018-09-24T07:10:03.872Z,8.70
2018-09-24T07:12:37.556Z,8.60
2018-09-24T07:15:11.312Z,8.90
2018-09-24T07:17:45.066Z,10.90
2018-09-24T07:20:18.843Z,11.70
2018-09-24T07:22:52.698Z,11.00
2018-09-24T07:25:26.456Z,10.30
2018-09-24T07:28:00.199Z,10.00
2018-09-24T07:30:33.883Z,10.20
2018-09-24T07:33:07.630Z,10.00
2018-09-24T07:35:41.273Z,10.00
2018-09-24T07:38:15.001Z,10.00
2018-09-24T07:40:48.491Z,10.20
2018-09-24T07:43:22.299Z,10.60
2018-09-24T07:45:55.877Z,10.70
2018-09-24T07:48:29.363Z,10.80
2018-09-24T07:51:03.109Z,10.90
2018-09-24T07:53:36.925Z,10.80
2018-09-24T07:56:10.563Z,10.80
2018-09-24T07:58:44.293Z,11.10
2018-09-24T08:01:18.070Z,11.80
2018-09-24T08:03:51.718Z,12.50
2018-09-24T08:06:25.517Z,12.80
2018-09-24T08:08:59.297Z,12.70
2018-09-24T08:11:33.122Z,12.40
2018-09-24T08:14:06.951Z,12.40
2018-09-24T08:16:40.647Z,12.30
2018-09-24T08:19:14.448Z,12.40
2018-09-24T08:21:48.225Z,12.30
2018-09-24T08:24:21.932Z,12.50
2018-09-24T08:26:55.622Z,13.50
2018-09-24T08:29:29.393Z,13.30
2018-09-24T08:32:03.081Z,12.80
2018-09-24T08:34:36.843Z,12.60
2018-09-24T08:37:10.581Z,12.50
2018-09-24T08:39:44.993Z,12.40
2018-09-24T08:42:18.692Z,12.30
2018-09-24T08:44:52.453Z,12.60
2018-09-24T08:47:26.105Z,12.50
2018-09-24T08:49:59.769Z,12.70
2018-09-24T08:52:33.497Z,12.70
2018-09-24T08:55:07.168Z,13.00
2018-09-24T08:57:40.850Z,13.00
2018-09-24T09:00:14.609Z,13.10
2018-09-24T09:02:48.353Z,13.10
2018-09-24T09:05:22.081Z,13.30
2018-09-24T09:07:55.729Z,13.40
2018-09-24T09:10:29.449Z,13.30
2018-09-24T09:13:03.185Z,14.00
2018-09-24T09:15:36.946Z,13.80
2018-09-24T09:18:10.781Z,13.80
2018-09-24T09:20:44.409Z,13.50
2018-09-24T09:23:18.128Z,13.40
2018-09-24T09:25:51.949Z,13.30
2018-09-24T09:28:26.161Z,13.40
2018-09-24T09:31:00.117Z,13.40
2018-09-24T09:33:33.920Z,13.50
2018-09-24T09:36:07.662Z,13.70
2018-09-24T09:38:41.341Z,14.10
2018-09-24T09:41:15.061Z,14.20
2018-09-24T09:43:48.822Z,14.00
2018-09-24T09:46:22.513Z,13.90
2018-09-24T09:48:56.338Z,13.90
2018-09-24T09:51:30.141Z,14.20
2018-09-24T09:54:03.945Z,14.60
2018-09-24T09:56:37.725Z,14.60
2018-09-24T09:59:11.536Z,14.30
2018-09-24T10:01:45.048Z,14.30
2018-09-24T10:04:18.752Z,14.00
2018-09-24T10:06:52.524Z,14.10
2018-09-24T10:09:26.378Z,14.20
2018-09-24T10:12:00.149Z,14.40
2018-09-24T10:14:33.890Z,14.40
2018-09-24T10:17:07.666Z,14.60
2018-09-24T10:19:41.416Z,14.50
2018-09-24T10:22:15.149Z,14.50
2018-09-24T10:24:48.948Z,14.50
2018-09-24T10:27:22.705Z,14.50
2018-09-24T10:29:56.516Z,14.50
2018-09-24T10:32:30.264Z,14.60
2018-09-24T10:35:04.134Z,14.60
2018-09-24T10:37:37.888Z,14.80
2018-09-24T10:40:12.386Z,14.80
2018-09-24T10:42:45.908Z,14.80
2018-09-24T10:45:19.757Z,14.60
2018-09-24T10:47:53.529Z,14.60
2018-09-24T10:50:27.233Z,14.70
2018-09-24T10:53:01.037Z,15.20
2018-09-24T10:55:34.818Z,15.10
2018-09-24T10:58:08.589Z,15.10
2018-09-24T11:00:42.369Z,15.00
2018-09-24T11:03:16.146Z,15.10
2018-09-24T11:05:49.879Z,15.30
2018-09-24T11:08:23.673Z,15.50
2018-09-24T11:10:57.467Z,15.80
2018-09-24T11:13:31.173Z,15.40
2018-09-24T11:16:05.045Z,15.00
2018-09-24T11:18:38.672Z,15.40
2018-09-24T11:21:12.493Z,15.10
2018-09-24T11:23:46.311Z,15.70
2018-09-24T11:28:53.661Z,15.80
2018-09-24T11:31:27.417Z,15.70
2018-09-24T11:34:01.177Z,15.60
2018-09-24T11:36:34.920Z,15.50
2018-09-24T11:39:08.612Z,16.00
2018-09-24T11:41:42.396Z,18.50
2018-09-24T11:44:16.221Z,20.30
2018-09-24T11:46:50.168Z,21.20
2018-09-24T11:49:23.825Z,21.90
2018-09-24T11:51:57.509Z,19.30
2018-09-24T11:54:31.207Z,17.70
2018-09-24T11:57:04.942Z,17.30
2018-09-24T11:59:38.633Z,19.30
2018-09-24T12:02:12.436Z,20.90
2018-09-24T12:04:46.045Z,21.90
2018-09-24T12:07:19.645Z,22.90
2018-09-24T12:09:53.336Z,23.10
2018-09-24T12:12:26.997Z,23.20
2018-09-24T12:15:00.641Z,23.20
2018-09-24T12:17:34.501Z,22.70
2018-09-24T12:20:08.248Z,22.30
2018-09-24T12:22:41.905Z,22.50
2018-09-24T12:25:15.676Z,22.50
2018-09-24T12:27:49.378Z,22.40
2018-09-24T12:30:23.009Z,22.50
2018-09-24T12:32:56.791Z,23.00
2018-09-24T12:35:30.485Z,22.30
2018-09-24T12:38:04.193Z,21.50
2018-09-24T12:40:37.812Z,21.90
2018-09-24T12:43:11.352Z,20.60
2018-09-24T12:45:44.989Z,19.40
2018-09-24T12:48:18.740Z,18.50
2018-09-24T12:50:52.393Z,17.70
2018-09-24T12:53:26.280Z,17.30
2018-09-24T12:55:59.997Z,17.00
2018-09-24T12:58:33.826Z,17.00
2018-09-24T13:01:07.530Z,16.80
2018-09-24T13:03:41.361Z,16.80
2018-09-24T13:06:15.129Z,16.50
2018-09-24T13:08:48.843Z,16.50
2018-09-24T13:11:22.613Z,16.20
2018-09-24T13:13:56.465Z,15.60
2018-09-24T13:16:30.160Z,15.30
2018-09-24T13:19:03.990Z,15.20
2018-09-24T13:21:37.642Z,15.30
2018-09-24T13:24:11.524Z,15.30
2018-09-24T13:26:45.293Z,15.10
2018-09-24T13:29:18.986Z,14.90
2018-09-24T13:31:52.699Z,14.80
2018-09-24T13:34:26.469Z,14.80
2018-09-24T13:37:00.180Z,14.90
2018-09-24T13:39:33.888Z,15.00
2018-09-24T13:42:14.645Z,15.00
2018-09-24T13:44:48.345Z,15.00
2018-09-24T13:47:22.174Z,15.00
2018-09-24T13:49:55.880Z,14.90
2018-09-24T13:52:29.608Z,14.80
2018-09-24T13:55:03.387Z,14.70
2018-09-24T13:57:36.981Z,14.70
2018-09-24T14:00:11.045Z,14.80
2018-09-24T14:02:44.584Z,14.90
2018-09-24T14:05:18.328Z,14.80
2018-09-24T14:07:52.229Z,14.70
2018-09-24T14:10:25.993Z,14.80
2018-09-24T14:12:59.645Z,14.80
2018-09-24T14:15:33.489Z,14.90
2018-09-24T14:18:07.324Z,14.80
2018-09-24T14:20:41.053Z,14.60
2018-09-24T14:23:14.833Z,14.60
2018-09-24T14:25:48.522Z,14.40
2018-09-24T14:28:22.237Z,14.30
2018-09-24T14:30:55.978Z,14.20
2018-09-24T14:33:29.757Z,14.10
2018-09-24T14:36:03.490Z,13.90
2018-09-24T14:38:37.266Z,13.80
2018-09-24T14:41:11.210Z,13.80
2018-09-24T14:43:44.936Z,13.80
2018-09-24T14:46:18.737Z,13.80
2018-09-24T14:48:52.610Z,13.90
2018-09-24T14:51:26.361Z,13.90
2018-09-24T14:54:00.201Z,13.80
2018-09-24T14:56:33.976Z,13.70
2018-09-24T14:59:07.620Z,13.60
2018-09-24T15:01:41.323Z,13.50
2018-09-24T15:04:15.078Z,13.30
2018-09-24T15:06:48.792Z,13.40
2018-09-24T15:09:22.610Z,13.60
2018-09-24T15:11:56.330Z,13.70
2018-09-24T15:14:30.037Z,13.70
2018-09-24T15:17:03.758Z,13.60
2018-09-24T15:19:37.690Z,13.50
2018-09-24T15:22:11.402Z,13.50
2018-09-24T15:24:45.118Z,13.50
2018-09-24T15:27:18.817Z,14.00
2018-09-24T15:29:52.468Z,14.00
2018-09-24T15:32:26.770Z,13.90
2018-09-24T15:35:00.449Z,13.90
2018-09-24T15:37:34.088Z,13.90
2018-09-24T15:40:07.854Z,13.90
2018-09-24T15:42:41.622Z,13.60
2018-09-24T15:45:15.348Z,13.60
2018-09-24T15:47:49.170Z,13.70
2018-09-24T15:50:22.990Z,13.70
2018-09-24T15:52:56.586Z,13.70
2018-09-24T15:55:30.365Z,13.60
2018-09-24T15:58:04.109Z,13.60
2018-09-24T16:00:37.817Z,13.40
2018-09-24T16:03:11.594Z,13.30
2018-09-24T16:05:45.308Z,13.30
2018-09-24T16:08:19.013Z,13.30
2018-09-24T16:10:52.778Z,13.40
2018-09-24T16:13:26.523Z,14.60
2018-09-24T16:16:00.248Z,15.00
2018-09-24T16:18:33.892Z,15.10
2018-09-24T16:21:07.656Z,15.20
2018-09-24T16:23:41.374Z,15.50
2018-09-24T16:26:15.129Z,15.20
2018-09-24T16:28:48.872Z,15.40
2018-09-24T16:31:22.588Z,15.40
2018-09-24T16:33:56.252Z,14.90
2018-09-24T16:36:30.045Z,14.10
2018-09-24T16:39:03.743Z,13.60
2018-09-24T16:41:37.448Z,14.00
2018-09-24T16:44:11.197Z,13.60
2018-09-24T16:46:44.959Z,13.50
2018-09-24T16:49:18.646Z,13.30
2018-09-24T16:51:52.447Z,13.10
2018-09-24T16:54:26.274Z,13.10
2018-09-24T16:57:00.078Z,12.90
2018-09-24T16:59:33.867Z,12.90
2018-09-24T17:02:07.611Z,13.00
2018-09-24T17:04:41.397Z,13.10
2018-09-24T17:07:15.095Z,12.80
2018-09-24T17:09:48.773Z,12.60
2018-09-24T17:12:22.397Z,12.40
2018-09-24T17:14:56.202Z,12.30
2018-09-24T17:17:29.951Z,12.20
2018-09-24T17:20:03.732Z,12.10
2018-09-24T17:22:37.377Z,12.10
2018-09-24T17:25:11.100Z,12.10
2018-09-24T17:27:44.914Z,12.00
2018-09-24T17:30:18.661Z,12.00
2018-09-24T17:32:52.318Z,12.00
2018-09-24T17:35:26.083Z,12.00
2018-09-24T17:37:59.842Z,11.90
2018-09-24T17:40:33.565Z,11.80
2018-09-24T17:43:07.289Z,11.70
2018-09-24T17:45:41.044Z,11.60
2018-09-24T17:48:14.721Z,11.50
2018-09-24T17:50:48.478Z,11.40
2018-09-24T17:53:22.261Z,11.40
2018-09-24T17:55:56.060Z,11.30
2018-09-24T17:58:29.777Z,11.30
2018-09-24T18:01:03.605Z,11.20
2018-09-24T18:03:37.296Z,11.20
2018-09-24T18:06:11.080Z,11.10
2018-09-24T18:08:44.782Z,11.00
2018-09-24T18:11:18.513Z,10.90
2018-09-24T18:13:52.289Z,10.90
2018-09-24T18:16:26.110Z,10.80
2018-09-24T18:18:59.690Z,10.80
2018-09-24T18:21:33.421Z,10.80
2018-09-24T18:24:07.156Z,10.70
2018-09-24T18:26:40.906Z,10.70
2018-09-24T18:29:14.670Z,10.60
2018-09-24T18:31:48.482Z,11.40
2018-09-24T18:34:22.121Z,11.50
2018-09-24T18:36:55.766Z,11.30
2018-09-24T18:39:29.541Z,11.10
2018-09-24T18:42:03.239Z,11.00
2018-09-24T18:44:36.973Z,10.90
2018-09-24T18:47:10.689Z,10.90
2018-09-24T18:49:44.516Z,10.90
2018-09-24T18:52:18.249Z,10.80
2018-09-24T18:54:52.053Z,10.80
2018-09-24T18:57:25.679Z,10.90
2018-09-24T18:59:59.486Z,10.80
2018-09-24T19:02:33.247Z,10.90
2018-09-24T19:05:07.039Z,10.60
2018-09-24T19:07:40.878Z,10.40
2018-09-24T19:10:14.612Z,10.30
2018-09-24T19:12:48.298Z,10.30
2018-09-24T19:15:22.094Z,10.20
2018-09-24T19:17:55.781Z,10.10
2018-09-24T19:20:29.664Z,10.10
2018-09-24T19:23:03.384Z,10.10
2018-09-24T19:25:37.122Z,10.10
2018-09-24T19:28:10.914Z,10.00
2018-09-24T19:30:44.649Z,9.90
2018-09-24T19:33:18.418Z,9.60
2018-09-24T19:35:52.116Z,9.50
2018-09-24T19:38:25.801Z,9.40
2018-09-24T19:40:59.629Z,9.40
2018-09-24T19:43:33.358Z,9.30
2018-09-24T19:46:07.110Z,9.10
2018-09-24T19:48:40.753Z,8.90
2018-09-24T19:51:14.554Z,9.00
2018-09-24T19:53:48.329Z,8.90
2018-09-24T19:56:22.186Z,8.80
2018-09-24T19:58:55.941Z,8.90
2018-09-24T20:01:29.796Z,8.60
2018-09-24T20:04:03.484Z,8.50
2018-09-24T20:06:37.249Z,8.50
2018-09-24T20:09:13.543Z,8.40
2018-09-24T20:11:47.345Z,8.10
2018-09-24T20:14:21.118Z,8.00
2018-09-24T20:16:54.923Z,7.80
2018-09-24T20:19:28.525Z,7.60
2018-09-24T20:22:02.154Z,7.70
2018-09-24T20:24:35.822Z,7.60
2018-09-24T20:27:09.477Z,7.50
2018-09-24T20:29:43.309Z,7.50
2018-09-24T20:32:17.080Z,7.50
2018-09-24T20:34:50.854Z,7.40
2018-09-24T20:37:24.613Z,7.30
2018-09-24T20:39:58.389Z,7.30
2018-09-24T20:42:32.207Z,7.30
2018-09-24T20:45:05.910Z,7.20
2018-09-24T20:47:39.673Z,7.20
2018-09-24T20:50:13.452Z,7.00
2018-09-24T20:52:47.109Z,6.90
2018-09-24T20:55:20.728Z,6.80
2018-09-24T20:57:54.430Z,6.80
2018-09-24T21:00:28.318Z,6.80
2018-09-24T21:03:02.122Z,6.90
2018-09-24T21:05:35.834Z,7.00
2018-09-24T21:08:09.504Z,6.90
2018-09-24T21:10:43.221Z,6.90
2018-09-24T21:13:17.027Z,6.90
2018-09-24T21:15:50.748Z,6.70
2018-09-24T21:18:24.453Z,6.70
2018-09-24T21:20:58.124Z,6.70
2018-09-24T21:23:31.809Z,6.80
2018-09-24T21:26:05.565Z,6.90
2018-09-24T21:28:39.286Z,6.80
2018-09-24T21:31:13.049Z,6.70
2018-09-24T21:33:46.745Z,6.60
2018-09-24T21:36:20.601Z,6.60
2018-09-24T21:38:54.260Z,6.60
2018-09-24T21:41:28.041Z,6.60
2018-09-24T21:44:01.806Z,6.60
2018-09-24T21:46:35.690Z,6.60
2018-09-24T21:49:09.197Z,6.50
2018-09-24T21:51:42.824Z,6.50
2018-09-24T21:54:16.556Z,6.50
2018-09-24T21:56:50.152Z,6.40
2018-09-24T21:59:23.882Z,6.20
2018-09-24T22:01:57.626Z,6.00
2018-09-24T22:04:31.462Z,6.10
2018-09-24T22:07:05.002Z,6.20
2018-09-24T22:09:38.737Z,6.30
2018-09-24T22:12:12.506Z,6.30
2018-09-24T22:14:46.322Z,6.30
2018-09-24T22:17:20.013Z,6.30
2018-09-24T22:19:53.821Z,6.20
2018-09-24T22:22:27.520Z,6.10
2018-09-24T22:25:01.352Z,5.90
2018-09-24T22:27:35.138Z,5.80
2018-09-24T22:30:08.950Z,5.70
2018-09-24T22:32:42.736Z,5.60
2018-09-24T22:35:16.568Z,5.60
2018-09-24T22:37:50.260Z,5.70
2018-09-24T22:40:23.977Z,5.60
2018-09-24T22:42:58.422Z,5.60
2018-09-24T22:45:32.212Z,5.50
2018-09-24T22:48:05.945Z,5.30
2018-09-24T22:50:39.717Z,5.30
2018-09-24T22:53:13.476Z,5.30
2018-09-24T22:55:47.285Z,5.30
2018-09-24T22:58:21.005Z,5.20
2018-09-24T23:00:54.791Z,5.30
2018-09-24T23:03:28.612Z,5.40
2018-09-24T23:06:02.342Z,5.50
2018-09-24T23:08:36.113Z,5.50
2018-09-24T23:11:09.925Z,5.50
2018-09-24T23:13:43.736Z,5.50
2018-09-24T23:16:17.516Z,5.40
2018-09-24T23:18:51.242Z,5.40
2018-09-24T23:21:25.033Z,5.30
2018-09-24T23:23:58.874Z,5.40
2018-09-24T23:26:32.681Z,5.40
2018-09-24T23:29:06.351Z,5.50
2018-09-24T23:31:40.173Z,5.50
2018-09-24T23:34:13.878Z,5.40
2018-09-24T23:36:47.682Z,5.40
2018-09-24T23:39:21.372Z,5.30
2018-09-24T23:41:55.164Z,5.20
2018-09-24T23:44:29.000Z,5.20
2018-09-24T23:47:02.738Z,5.00
2018-09-24T23:49:36.385Z,4.90
2018-09-24T23:52:10.065Z,4.70
2018-09-24T23:54:43.717Z,4.60
2018-09-24T23:57:17.497Z,4.60
2018-09-24T23:59:51.288Z,4.60
